Latest Weather Observations for Melville Water

IDW60801

Issued at 6:05 pm WST Tuesday 30 September 2014 (issued every 30 minutes, with the page automatically refreshed every 10 minutes)

About weather observations | Map of weather stations | Latest weather observations for WA | Other Formats
Station Details ID: 009091 Name: INNER DOLPHIN PYLON Lat: -31.99 Lon: 115.83 Height: 0.0 m
Data from the previous 72 hours. | See also: Recent months for locations in Western Australia
Date/Time
WST
Temp
°C
App
Temp
°C
Dew
Point
Rel
Hum
%
Delta-T
°C
Wind Press
QNH
hPa
Press
MSL
hPa
Rain
since 9 am
mm
Dir
 
Spd
km/h
Gust
km/h
Spd
kts
Gust
kts
30/06:00pm - - - - - SW 17 20 9 11 - - -
30/05:30pm - - - - - SSW 19 22 10 12 - - -
30/05:00pm - - - - - SW 19 22 10 12 - - -
30/04:30pm - - - - - SW 24 28 13 15 - - -
30/04:00pm - - - - - SW 22 26 12 14 - - -
30/03:30pm - - - - - WSW 20 26 11 14 - - -
30/03:00pm - - - - - WSW 20 24 11 13 - - -
30/02:30pm - - - - - SW 19 24 10 13 - - -
30/02:00pm - - - - - SW 20 24 11 13 - - -
30/01:30pm - - - - - WSW 17 22 9 12 - - -
30/01:00pm - - - - - W 2 7 1 4 - - -
30/12:30pm - - - - - W 4 7 2 4 - - -
30/12:00pm - - - - - E 4 6 2 3 - - -
30/11:30am - - - - - ESE 2 4 1 2 - - -
30/11:00am - - - - - SW 4 6 2 3 - - -
30/10:30am - - - - - ENE 7 17 4 9 - - -
30/10:00am - - - - - ESE 13 19 7 10 - - -
30/09:30am - - - - - ESE 17 32 9 17 - - -
30/09:00am - - - - - SE 17 26 9 14 - - -
30/08:30am - - - - - ESE 17 22 9 12 - - -
30/08:00am - - - - - SE 19 22 10 12 - - -
30/07:30am - - - - - SE 15 19 8 10 - - -
30/07:00am - - - - - SE 13 15 7 8 - - -
30/06:30am - - - - - SE 13 17 7 9 - - -
30/06:00am - - - - - SE 13 17 7 9 - - -
30/05:30am - - - - - SSE 9 13 5 7 - - -
30/05:00am - - - - - SE 7 11 4 6 - - -
30/04:30am - - - - - E 6 7 3 4 - - -
30/04:00am - - - - - E 7 9 4 5 - - -
30/03:30am - - - - - ESE 4 7 2 4 - - -
30/03:00am - - - - - E 6 9 3 5 - - -
30/02:30am - - - - - E 9 11 5 6 - - -
30/02:00am - - - - - SE 9 13 5 7 - - -
30/01:30am - - - - - SE 7 9 4 5 - - -
30/01:00am - - - - - SE 9 13 5 7 - - -
30/12:30am - - - - - S 9 11 5 6 - - -
30/12:00am - - - - - S 6 9 3 5 - - -
 
Date/Time
WST
Temp
°C
App
Temp
°C
Dew
Point
Rel
Hum
%
Delta-T
°C
Wind Press
QNH
hPa
Press
MSL
hPa
Rain
since 9 am
mm
Dir
 
Spd
km/h
Gust
km/h
Spd
kts
Gust
kts
29/11:30pm - - - - - S 9 11 5 6 - - -
29/11:00pm - - - - - S 9 13 5 7 - - -
29/10:30pm - - - - - S 17 24 9 13 - - -
29/10:00pm - - - - - SSW 19 22 10 12 - - -
29/09:30pm - - - - - SSW 20 26 11 14 - - -
29/09:00pm - - - - - S 19 24 10 13 - - -
29/08:30pm - - - - - SSW 22 30 12 16 - - -
29/08:00pm - - - - - SSW 19 24 10 13 - - -
29/07:30pm - - - - - SSW 13 17 7 9 - - -
29/07:00pm - - - - - SSW 17 22 9 12 - - -
29/06:30pm - - - - - SSW 19 24 10 13 - - -
29/06:00pm - - - - - SSW 13 17 7 9 - - -
29/05:30pm - - - - - SSW 20 26 11 14 - - -
29/05:00pm - - - - - SW 24 32 13 17 - - -
29/04:30pm - - - - - SSW 22 28 12 15 - - -
29/04:00pm - - - - - WSW 20 26 11 14 - - -
29/03:30pm - - - - - SW 22 28 12 15 - - -
29/03:00pm - - - - - WSW 24 28 13 15 - - -
29/02:30pm - - - - - W 19 22 10 12 - - -
29/02:00pm - - - - - WSW 20 30 11 16 - - -
29/01:30pm - - - - - WSW 24 32 13 17 - - -
29/01:00pm - - - - - WSW 24 30 13 16 - - -
29/12:30pm - - - - - WSW 20 28 11 15 - - -
29/12:00pm - - - - - WSW 24 32 13 17 - - -
29/11:30am - - - - - W 20 30 11 16 - - -
29/11:00am - - - - - W 22 32 12 17 - - -
29/10:30am - - - - - W 19 30 10 16 - - -
29/10:00am - - - - - W 20 32 11 17 - - -
29/09:30am - - - - - WNW 11 20 6 11 - - -
29/09:00am - - - - - WNW 15 20 8 11 - - -
29/08:30am - - - - - WNW 11 17 6 9 - - -
29/08:00am - - - - - WNW 9 13 5 7 - - -
29/07:30am - - - - - WNW 13 20 7 11 - - -
29/07:00am - - - - - WNW 9 11 5 6 - - -
29/06:30am - - - - - WNW 15 20 8 11 - - -
29/06:00am - - - - - WNW 9 15 5 8 - - -
29/05:30am - - - - - NW 7 11 4 6 - - -
29/05:00am - - - - - NW 13 17 7 9 - - -
29/04:30am - - - - - NW 11 17 6 9 - - -
29/04:00am - - - - - WNW 13 19 7 10 - - -
29/03:30am - - - - - W 9 13 5 7 - - -
29/03:04am - - - - - W 28 39 15 21 - - -
29/03:00am - - - - - WNW 11 15 6 8 - - -
29/02:30am - - - - - WNW 11 15 6 8 - - -
29/02:00am - - - - - WNW 11 15 6 8 - - -
29/01:30am - - - - - WNW 13 20 7 11 - - -
29/01:00am - - - - - W 15 20 8 11 - - -
29/12:30am - - - - - WNW 11 17 6 9 - - -
29/12:00am - - - - - WNW 9 15 5 8 - - -
 
Date/Time
WST
Temp
°C
App
Temp
°C
Dew
Point
Rel
Hum
%
Delta-T
°C
Wind Press
QNH
hPa
Press
MSL
hPa
Rain
since 9 am
mm
Dir
 
Spd
km/h
Gust
km/h
Spd
kts
Gust
kts
28/11:30pm - - - - - WNW 11 13 6 7 - - -
28/11:00pm - - - - - NW 11 15 6 8 - - -
28/10:30pm - - - - - NW 6 11 3 6 - - -
28/10:00pm - - - - - NW 9 13 5 7 - - -
28/09:30pm - - - - - WNW 9 13 5 7 - - -
28/09:00pm - - - - - WNW 13 17 7 9 - - -
28/08:30pm - - - - - NW 13 19 7 10 - - -
28/08:00pm - - - - - NW 13 20 7 11 - - -
28/07:30pm - - - - - WNW 13 19 7 10 - - -
28/07:00pm - - - - - NW 11 20 6 11 - - -
28/06:30pm - - - - - WNW 17 22 9 12 - - -
28/06:00pm - - - - - WNW 15 26 8 14 - - -
28/05:30pm - - - - - WNW 20 30 11 16 - - -
28/05:00pm - - - - - WNW 19 26 10 14 - - -
28/04:30pm - - - - - WNW 22 33 12 18 - - -
28/04:00pm - - - - - WNW 19 30 10 16 - - -
28/03:30pm - - - - - WNW 20 33 11 18 - - -
28/03:00pm - - - - - WNW 22 33 12 18 - - -
28/02:30pm - - - - - WNW 26 37 14 20 - - -
28/02:00pm - - - - - W 22 35 12 19 - - -
28/01:30pm - - - - - WNW 22 33 12 18 - - -
28/01:00pm - - - - - WNW 20 32 11 17 - - -
28/12:30pm - - - - - WNW 24 39 13 21 - - -
28/12:00pm - - - - - WNW 20 30 11 16 - - -
28/11:30am - - - - - WNW 15 20 8 11 - - -
28/11:00am - - - - - WNW 24 39 13 21 - - -
28/10:30am - - - - - WNW 15 24 8 13 - - -
28/10:00am - - - - - W 26 35 14 19 - - -
28/09:30am - - - - - W 28 35 15 19 - - -
28/09:00am - - - - - WNW 19 26 10 14 - - -
28/08:30am - - - - - WNW 15 20 8 11 - - -
28/08:00am - - - - - WNW 20 28 11 15 - - -
28/07:30am - - - - - W 22 32 12 17 - - -
28/07:00am - - - - - W 20 32 11 17 - - -
28/06:30am - - - - - W 22 33 12 18 - - -
28/06:00am - - - - - W 20 33 11 18 - - -
28/05:30am - - - - - W 20 30 11 16 - - -
28/05:00am - - - - - W 24 37 13 20 - - -
28/04:30am - - - - - W 20 30 11 16 - - -
28/04:00am - - - - - WSW 24 33 13 18 - - -
28/03:40am - - - - - W 28 48 15 26 - - -
28/03:30am - - - - - W 26 39 14 21 - - -
28/03:00am - - - - - W 30 44 16 24 - - -
28/02:30am - - - - - W 22 30 12 16 - - -
28/02:00am - - - - - W 26 43 14 23 - - -
28/01:30am - - - - - WNW 20 33 11 18 - - -
28/01:14am - - - - - WNW 28 35 15 19 - - -
28/01:00am - - - - - W 13 17 7 9 - - -
28/12:30am - - - - - W 22 30 12 16 - - -
28/12:00am - - - - - W 17 28 9 15 - - -
 
Date/Time
WST
Temp
°C
App
Temp
°C
Dew
Point
Rel
Hum
%
Delta-T
°C
Wind Press
QNH
hPa
Press
MSL
hPa
Rain
since 9 am
mm
Dir
 
Spd
km/h
Gust
km/h
Spd
kts
Gust
kts
27/11:30pm - - - - - W 26 33 14 18 - - -
27/11:00pm - - - - - W 26 35 14 19 - - -
27/10:30pm - - - - - W 26 39 14 21 - - -
27/10:00pm - - - - - W 20 32 11 17 - - -
27/09:30pm - - - - - W 22 32 12 17 - - -
27/09:00pm - - - - - W 24 33 13 18 - - -
27/08:30pm - - - - - W 24 33 13 18 - - -
27/08:00pm - - - - - W 24 32 13 17 - - -
27/07:30pm - - - - - W 26 35 14 19 - - -
27/07:00pm - - - - - W 20 30 11 16 - - -
27/06:30pm - - - - - W 24 35 13 19 - - -

Other Formats:

Comma delimited format used in spreadsheet applications
http://www.bom.gov.au/fwo/IDW60801/IDW60801.95620.axf

JavaScript Object Notation format (JSON) in row-major order
http://www.bom.gov.au/fwo/IDW60801/IDW60801.95620.json